sensor_id;sensor_type;location;lat;lon;timestamp;P1;durP1;ratioP1;P2;durP2;ratioP2
63714;SDS011;49858;48.956;9.076;2022-09-09T00:00:53;4.90;;;2.15;;
63714;SDS011;49858;48.956;9.076;2022-09-09T00:03:27;5.45;;;1.70;;
63714;SDS011;49858;48.956;9.076;2022-09-09T00:06:05;5.97;;;2.22;;
63714;SDS011;49858;48.956;9.076;2022-09-09T00:08:44;5.10;;;2.20;;
63714;SDS011;49858;48.956;9.076;2022-09-09T00:11:20;5.78;;;2.30;;
63714;SDS011;49858;48.956;9.076;2022-09-09T00:13:56;3.75;;;2.20;;
63714;SDS011;49858;48.956;9.076;2022-09-09T00:16:29;6.65;;;2.58;;
63714;SDS011;49858;48.956;9.076;2022-09-09T00:19:04;5.88;;;2.17;;
63714;SDS011;49858;48.956;9.076;2022-09-09T00:21:35;3.75;;;2.33;;
63714;SDS011;49858;48.956;9.076;2022-09-09T00:24:11;4.15;;;2.22;;
63714;SDS011;49858;48.956;9.076;2022-09-09T00:26:47;4.35;;;2.28;;
63714;SDS011;49858;48.956;9.076;2022-09-09T00:29:20;8.48;;;2.47;;
63714;SDS011;49858;48.956;9.076;2022-09-09T00:31:56;6.32;;;2.63;;
63714;SDS011;49858;48.956;9.076;2022-09-09T00:34:29;8.25;;;2.65;;
63714;SDS011;49858;48.956;9.076;2022-09-09T00:36:59;4.80;;;2.13;;
63714;SDS011;49858;48.956;9.076;2022-09-09T00:39:30;5.25;;;2.38;;
63714;SDS011;49858;48.956;9.076;2022-09-09T00:42:05;3.63;;;2.47;;
63714;SDS011;49858;48.956;9.076;2022-09-09T00:44:50;7.95;;;2.40;;
63714;SDS011;49858;48.956;9.076;2022-09-09T00:47:25;6.22;;;2.55;;
63714;SDS011;49858;48.956;9.076;2022-09-09T00:50:17;4.53;;;2.42;;
63714;SDS011;49858;48.956;9.076;2022-09-09T00:53:11;4.18;;;2.03;;
63714;SDS011;49858;48.956;9.076;2022-09-09T00:55:49;4.35;;;2.00;;
63714;SDS011;49858;48.956;9.076;2022-09-09T00:58:27;4.70;;;2.05;;
63714;SDS011;49858;48.956;9.076;2022-09-09T01:00:56;5.18;;;1.90;;
63714;SDS011;49858;48.956;9.076;2022-09-09T01:03:36;4.07;;;2.03;;
63714;SDS011;49858;48.956;9.076;2022-09-09T01:06:12;5.57;;;1.80;;
63714;SDS011;49858;48.956;9.076;2022-09-09T01:08:56;8.35;;;1.95;;
63714;SDS011;49858;48.956;9.076;2022-09-09T01:11:38;4.65;;;1.85;;
63714;SDS011;49858;48.956;9.076;2022-09-09T01:14:20;4.18;;;1.75;;
63714;SDS011;49858;48.956;9.076;2022-09-09T01:17:00;4.05;;;1.65;;
63714;SDS011;49858;48.956;9.076;2022-09-09T01:19:37;2.58;;;1.85;;
63714;SDS011;49858;48.956;9.076;2022-09-09T01:22:19;6.00;;;1.98;;
63714;SDS011;49858;48.956;9.076;2022-09-09T01:25:05;6.47;;;1.85;;
63714;SDS011;49858;48.956;9.076;2022-09-09T01:28:05;5.07;;;1.98;;
63714;SDS011;49858;48.956;9.076;2022-09-09T01:30:38;6.05;;;1.98;;
63714;SDS011;49858;48.956;9.076;2022-09-09T01:33:12;4.72;;;2.03;;
63714;SDS011;49858;48.956;9.076;2022-09-09T01:35:43;2.97;;;1.63;;
63714;SDS011;49858;48.956;9.076;2022-09-09T01:38:18;3.55;;;1.92;;
63714;SDS011;49858;48.956;9.076;2022-09-09T01:40:48;5.82;;;1.80;;
63714;SDS011;49858;48.956;9.076;2022-09-09T01:43:22;3.72;;;1.90;;
63714;SDS011;49858;48.956;9.076;2022-09-09T01:45:52;3.08;;;1.65;;
63714;SDS011;49858;48.956;9.076;2022-09-09T01:48:22;3.83;;;1.60;;
63714;SDS011;49858;48.956;9.076;2022-09-09T01:51:00;4.57;;;1.75;;
63714;SDS011;49858;48.956;9.076;2022-09-09T01:53:28;4.38;;;2.30;;
63714;SDS011;49858;48.956;9.076;2022-09-09T01:55:59;3.67;;;1.88;;
63714;SDS011;49858;48.956;9.076;2022-09-09T01:58:40;2.85;;;1.70;;
63714;SDS011;49858;48.956;9.076;2022-09-09T02:01:20;3.35;;;1.77;;
63714;SDS011;49858;48.956;9.076;2022-09-09T02:03:58;4.18;;;2.10;;
63714;SDS011;49858;48.956;9.076;2022-09-09T02:06:34;3.95;;;2.17;;
63714;SDS011;49858;48.956;9.076;2022-09-09T02:09:15;3.88;;;2.67;;
63714;SDS011;49858;48.956;9.076;2022-09-09T02:11:46;12.38;;;2.80;;
63714;SDS011;49858;48.956;9.076;2022-09-09T02:14:27;6.45;;;2.80;;
63714;SDS011;49858;48.956;9.076;2022-09-09T02:16:59;3.58;;;2.30;;
63714;SDS011;49858;48.956;9.076;2022-09-09T02:19:49;3.33;;;2.42;;
63714;SDS011;49858;48.956;9.076;2022-09-09T02:22:35;4.95;;;2.25;;
63714;SDS011;49858;48.956;9.076;2022-09-09T02:25:07;4.63;;;3.08;;
63714;SDS011;49858;48.956;9.076;2022-09-09T02:27:37;3.47;;;1.75;;
63714;SDS011;49858;48.956;9.076;2022-09-09T02:30:09;7.68;;;2.40;;
63714;SDS011;49858;48.956;9.076;2022-09-09T02:32:42;5.18;;;2.10;;
63714;SDS011;49858;48.956;9.076;2022-09-09T02:35:15;4.40;;;2.05;;
63714;SDS011;49858;48.956;9.076;2022-09-09T02:37:47;3.78;;;1.77;;
63714;SDS011;49858;48.956;9.076;2022-09-09T02:40:18;1.98;;;1.25;;
63714;SDS011;49858;48.956;9.076;2022-09-09T02:42:54;3.15;;;2.00;;
63714;SDS011;49858;48.956;9.076;2022-09-09T02:45:24;4.90;;;1.55;;
63714;SDS011;49858;48.956;9.076;2022-09-09T02:47:56;4.32;;;1.60;;
63714;SDS011;49858;48.956;9.076;2022-09-09T02:50:32;5.95;;;2.22;;
63714;SDS011;49858;48.956;9.076;2022-09-09T02:53:06;2.97;;;1.88;;
63714;SDS011;49858;48.956;9.076;2022-09-09T02:55:41;4.90;;;2.00;;
63714;SDS011;49858;48.956;9.076;2022-09-09T02:58:17;3.53;;;2.25;;
63714;SDS011;49858;48.956;9.076;2022-09-09T03:00:57;4.35;;;2.50;;
63714;SDS011;49858;48.956;9.076;2022-09-09T03:03:28;5.60;;;2.10;;
63714;SDS011;49858;48.956;9.076;2022-09-09T03:05:57;4.93;;;2.53;;
63714;SDS011;49858;48.956;9.076;2022-09-09T03:08:26;3.78;;;2.47;;
63714;SDS011;49858;48.956;9.076;2022-09-09T03:10:57;5.57;;;2.47;;
63714;SDS011;49858;48.956;9.076;2022-09-09T03:13:30;9.50;;;2.20;;
63714;SDS011;49858;48.956;9.076;2022-09-09T03:16:02;2.65;;;1.98;;
63714;SDS011;49858;48.956;9.076;2022-09-09T03:18:36;4.20;;;2.28;;
63714;SDS011;49858;48.956;9.076;2022-09-09T03:21:04;5.40;;;2.63;;
63714;SDS011;49858;48.956;9.076;2022-09-09T03:23:33;4.10;;;2.10;;
63714;SDS011;49858;48.956;9.076;2022-09-09T03:26:02;5.97;;;2.08;;
63714;SDS011;49858;48.956;9.076;2022-09-09T03:28:38;3.33;;;2.00;;
63714;SDS011;49858;48.956;9.076;2022-09-09T03:31:08;6.00;;;2.42;;
63714;SDS011;49858;48.956;9.076;2022-09-09T03:33:39;5.43;;;2.40;;
63714;SDS011;49858;48.956;9.076;2022-09-09T03:36:09;3.72;;;2.88;;
63714;SDS011;49858;48.956;9.076;2022-09-09T03:38:37;4.07;;;2.60;;
63714;SDS011;49858;48.956;9.076;2022-09-09T03:41:06;9.40;;;2.90;;
63714;SDS011;49858;48.956;9.076;2022-09-09T03:43:36;5.63;;;2.22;;
63714;SDS011;49858;48.956;9.076;2022-09-09T03:46:04;4.35;;;2.25;;
63714;SDS011;49858;48.956;9.076;2022-09-09T03:48:36;6.95;;;2.97;;
63714;SDS011;49858;48.956;9.076;2022-09-09T03:51:04;5.15;;;2.95;;
63714;SDS011;49858;48.956;9.076;2022-09-09T03:53:33;4.78;;;2.60;;
63714;SDS011;49858;48.956;9.076;2022-09-09T03:56:02;3.83;;;2.00;;
63714;SDS011;49858;48.956;9.076;2022-09-09T03:58:30;5.40;;;2.28;;
63714;SDS011;49858;48.956;9.076;2022-09-09T04:01:04;3.85;;;1.70;;
63714;SDS011;49858;48.956;9.076;2022-09-09T04:03:37;2.22;;;1.45;;
63714;SDS011;49858;48.956;9.076;2022-09-09T04:06:05;2.60;;;1.40;;
63714;SDS011;49858;48.956;9.076;2022-09-09T04:08:34;1.83;;;1.52;;
63714;SDS011;49858;48.956;9.076;2022-09-09T04:11:03;3.78;;;1.30;;
63714;SDS011;49858;48.956;9.076;2022-09-09T04:13:31;1.60;;;1.00;;
63714;SDS011;49858;48.956;9.076;2022-09-09T04:16:01;1.48;;;0.90;;
63714;SDS011;49858;48.956;9.076;2022-09-09T04:18:33;1.55;;;0.98;;
63714;SDS011;49858;48.956;9.076;2022-09-09T04:21:03;2.58;;;1.40;;
63714;SDS011;49858;48.956;9.076;2022-09-09T04:23:33;3.53;;;1.10;;
63714;SDS011;49858;48.956;9.076;2022-09-09T04:26:03;2.17;;;1.17;;
63714;SDS011;49858;48.956;9.076;2022-09-09T04:28:33;2.53;;;1.30;;
63714;SDS011;49858;48.956;9.076;2022-09-09T04:31:04;6.00;;;1.60;;
63714;SDS011;49858;48.956;9.076;2022-09-09T04:33:34;2.92;;;1.67;;
63714;SDS011;49858;48.956;9.076;2022-09-09T04:36:08;3.53;;;1.65;;
63714;SDS011;49858;48.956;9.076;2022-09-09T04:38:36;3.55;;;1.55;;
63714;SDS011;49858;48.956;9.076;2022-09-09T04:41:04;5.32;;;1.90;;
63714;SDS011;49858;48.956;9.076;2022-09-09T04:43:35;5.13;;;2.10;;
63714;SDS011;49858;48.956;9.076;2022-09-09T04:46:05;3.90;;;2.10;;
63714;SDS011;49858;48.956;9.076;2022-09-09T04:48:34;3.70;;;2.13;;
63714;SDS011;49858;48.956;9.076;2022-09-09T04:51:04;3.17;;;2.10;;
63714;SDS011;49858;48.956;9.076;2022-09-09T04:53:35;3.28;;;1.75;;
63714;SDS011;49858;48.956;9.076;2022-09-09T04:56:04;4.63;;;1.83;;
63714;SDS011;49858;48.956;9.076;2022-09-09T04:58:38;5.88;;;1.60;;
63714;SDS011;49858;48.956;9.076;2022-09-09T05:01:09;3.28;;;1.20;;
63714;SDS011;49858;48.956;9.076;2022-09-09T05:03:40;4.65;;;1.00;;
63714;SDS011;49858;48.956;9.076;2022-09-09T05:06:12;3.40;;;1.15;;
63714;SDS011;49858;48.956;9.076;2022-09-09T05:08:43;2.38;;;1.08;;
63714;SDS011;49858;48.956;9.076;2022-09-09T05:11:18;2.53;;;1.02;;
63714;SDS011;49858;48.956;9.076;2022-09-09T05:13:48;2.45;;;1.20;;
63714;SDS011;49858;48.956;9.076;2022-09-09T05:16:17;2.65;;;1.00;;
63714;SDS011;49858;48.956;9.076;2022-09-09T05:18:49;1.50;;;0.90;;
63714;SDS011;49858;48.956;9.076;2022-09-09T05:21:21;1.52;;;0.75;;
63714;SDS011;49858;48.956;9.076;2022-09-09T05:23:52;4.05;;;0.90;;
63714;SDS011;49858;48.956;9.076;2022-09-09T05:26:22;2.72;;;0.80;;
63714;SDS011;49858;48.956;9.076;2022-09-09T05:28:52;4.80;;;0.80;;
63714;SDS011;49858;48.956;9.076;2022-09-09T05:31:19;3.13;;;1.00;;
63714;SDS011;49858;48.956;9.076;2022-09-09T05:33:50;2.00;;;0.85;;
63714;SDS011;49858;48.956;9.076;2022-09-09T05:36:19;1.10;;;0.68;;
63714;SDS011;49858;48.956;9.076;2022-09-09T05:38:52;2.45;;;1.08;;
63714;SDS011;49858;48.956;9.076;2022-09-09T05:41:21;2.53;;;0.88;;
63714;SDS011;49858;48.956;9.076;2022-09-09T05:43:51;3.17;;;1.00;;
63714;SDS011;49858;48.956;9.076;2022-09-09T05:46:20;2.90;;;1.48;;
63714;SDS011;49858;48.956;9.076;2022-09-09T05:48:52;1.48;;;0.80;;
63714;SDS011;49858;48.956;9.076;2022-09-09T05:51:27;2.58;;;1.00;;
63714;SDS011;49858;48.956;9.076;2022-09-09T05:53:59;3.30;;;0.88;;
63714;SDS011;49858;48.956;9.076;2022-09-09T05:56:30;1.83;;;1.05;;
63714;SDS011;49858;48.956;9.076;2022-09-09T05:59:00;2.10;;;1.10;;
63714;SDS011;49858;48.956;9.076;2022-09-09T06:01:29;1.90;;;0.90;;
63714;SDS011;49858;48.956;9.076;2022-09-09T06:04:00;2.17;;;1.00;;
63714;SDS011;49858;48.956;9.076;2022-09-09T06:06:31;3.63;;;0.90;;
63714;SDS011;49858;48.956;9.076;2022-09-09T06:09:12;3.83;;;1.15;;
63714;SDS011;49858;48.956;9.076;2022-09-09T06:11:42;1.83;;;1.10;;
63714;SDS011;49858;48.956;9.076;2022-09-09T06:14:11;1.63;;;1.02;;
63714;SDS011;49858;48.956;9.076;2022-09-09T06:16:39;2.35;;;0.80;;
63714;SDS011;49858;48.956;9.076;2022-09-09T06:19:15;3.70;;;0.85;;
63714;SDS011;49858;48.956;9.076;2022-09-09T06:21:43;1.48;;;0.80;;
63714;SDS011;49858;48.956;9.076;2022-09-09T06:24:13;1.77;;;0.80;;
63714;SDS011;49858;48.956;9.076;2022-09-09T06:26:43;2.42;;;0.98;;
63714;SDS011;49858;48.956;9.076;2022-09-09T06:29:18;1.27;;;0.70;;
63714;SDS011;49858;48.956;9.076;2022-09-09T06:31:46;2.65;;;1.00;;
63714;SDS011;49858;48.956;9.076;2022-09-09T06:34:19;2.10;;;0.82;;
63714;SDS011;49858;48.956;9.076;2022-09-09T06:36:50;1.33;;;0.82;;
63714;SDS011;49858;48.956;9.076;2022-09-09T06:39:21;2.83;;;0.82;;
63714;SDS011;49858;48.956;9.076;2022-09-09T06:41:49;2.17;;;1.00;;
63714;SDS011;49858;48.956;9.076;2022-09-09T06:44:37;2.28;;;1.13;;
63714;SDS011;49858;48.956;9.076;2022-09-09T06:47:10;2.08;;;1.00;;
63714;SDS011;49858;48.956;9.076;2022-09-09T06:49:40;4.00;;;1.20;;
63714;SDS011;49858;48.956;9.076;2022-09-09T06:52:13;5.80;;;1.00;;
63714;SDS011;49858;48.956;9.076;2022-09-09T06:54:43;7.18;;;1.40;;
63714;SDS011;49858;48.956;9.076;2022-09-09T06:57:13;2.83;;;1.10;;
63714;SDS011;49858;48.956;9.076;2022-09-09T07:00:01;1.52;;;0.85;;
63714;SDS011;49858;48.956;9.076;2022-09-09T07:02:30;4.97;;;1.20;;
63714;SDS011;49858;48.956;9.076;2022-09-09T07:04:59;4.57;;;1.00;;
63714;SDS011;49858;48.956;9.076;2022-09-09T07:07:28;2.00;;;0.90;;
63714;SDS011;49858;48.956;9.076;2022-09-09T07:10:01;0.90;;;0.77;;
63714;SDS011;49858;48.956;9.076;2022-09-09T07:12:30;3.38;;;1.00;;
63714;SDS011;49858;48.956;9.076;2022-09-09T07:14:59;1.90;;;0.80;;
63714;SDS011;49858;48.956;9.076;2022-09-09T07:17:27;2.20;;;0.80;;
63714;SDS011;49858;48.956;9.076;2022-09-09T07:19:57;3.45;;;0.80;;
63714;SDS011;49858;48.956;9.076;2022-09-09T07:22:27;2.58;;;1.20;;
63714;SDS011;49858;48.956;9.076;2022-09-09T07:24:56;1.23;;;0.77;;
63714;SDS011;49858;48.956;9.076;2022-09-09T07:27:26;1.73;;;0.98;;
63714;SDS011;49858;48.956;9.076;2022-09-09T07:29:53;1.83;;;0.75;;
63714;SDS011;49858;48.956;9.076;2022-09-09T07:32:21;1.38;;;0.90;;
63714;SDS011;49858;48.956;9.076;2022-09-09T07:34:50;5.60;;;1.15;;
63714;SDS011;49858;48.956;9.076;2022-09-09T07:37:17;3.60;;;0.85;;
63714;SDS011;49858;48.956;9.076;2022-09-09T07:39:47;2.50;;;1.00;;
63714;SDS011;49858;48.956;9.076;2022-09-09T07:42:16;2.10;;;0.50;;
63714;SDS011;49858;48.956;9.076;2022-09-09T07:44:48;1.55;;;0.50;;
63714;SDS011;49858;48.956;9.076;2022-09-09T07:47:21;1.10;;;0.50;;
63714;SDS011;49858;48.956;9.076;2022-09-09T07:49:51;2.85;;;0.50;;
63714;SDS011;49858;48.956;9.076;2022-09-09T07:52:23;1.58;;;0.63;;
63714;SDS011;49858;48.956;9.076;2022-09-09T07:54:55;2.45;;;0.47;;
63714;SDS011;49858;48.956;9.076;2022-09-09T07:57:23;2.13;;;0.70;;
63714;SDS011;49858;48.956;9.076;2022-09-09T07:59:54;2.05;;;1.27;;
63714;SDS011;49858;48.956;9.076;2022-09-09T08:02:23;1.05;;;0.43;;
63714;SDS011;49858;48.956;9.076;2022-09-09T08:04:51;3.00;;;0.80;;
63714;SDS011;49858;48.956;9.076;2022-09-09T08:07:20;1.35;;;0.50;;
63714;SDS011;49858;48.956;9.076;2022-09-09T08:09:52;1.15;;;0.50;;
63714;SDS011;49858;48.956;9.076;2022-09-09T08:12:25;1.98;;;0.30;;
63714;SDS011;49858;48.956;9.076;2022-09-09T08:14:54;4.80;;;0.63;;
63714;SDS011;49858;48.956;9.076;2022-09-09T08:17:31;2.28;;;0.60;;
63714;SDS011;49858;48.956;9.076;2022-09-09T08:20:03;1.73;;;0.50;;
63714;SDS011;49858;48.956;9.076;2022-09-09T08:22:33;2.38;;;0.60;;
63714;SDS011;49858;48.956;9.076;2022-09-09T08:25:01;0.30;;;0.30;;
63714;SDS011;49858;48.956;9.076;2022-09-09T08:27:34;3.50;;;0.50;;
63714;SDS011;49858;48.956;9.076;2022-09-09T08:30:05;3.28;;;0.88;;
63714;SDS011;49858;48.956;9.076;2022-09-09T08:32:34;5.15;;;1.13;;
63714;SDS011;49858;48.956;9.076;2022-09-09T08:35:06;1.65;;;0.63;;
63714;SDS011;49858;48.956;9.076;2022-09-09T08:37:35;2.15;;;0.70;;
63714;SDS011;49858;48.956;9.076;2022-09-09T08:40:05;1.45;;;0.52;;
63714;SDS011;49858;48.956;9.076;2022-09-09T08:42:44;4.68;;;0.90;;
63714;SDS011;49858;48.956;9.076;2022-09-09T08:45:23;2.28;;;0.50;;
63714;SDS011;49858;48.956;9.076;2022-09-09T08:48:08;1.80;;;0.57;;
63714;SDS011;49858;48.956;9.076;2022-09-09T08:50:48;3.67;;;0.60;;
63714;SDS011;49858;48.956;9.076;2022-09-09T08:53:24;1.23;;;0.60;;
63714;SDS011;49858;48.956;9.076;2022-09-09T08:55:56;3.05;;;0.77;;
63714;SDS011;49858;48.956;9.076;2022-09-09T08:58:47;2.33;;;0.55;;
63714;SDS011;49858;48.956;9.076;2022-09-09T09:01:27;2.60;;;0.80;;
63714;SDS011;49858;48.956;9.076;2022-09-09T09:04:26;3.30;;;0.88;;
63714;SDS011;49858;48.956;9.076;2022-09-09T09:07:07;2.53;;;0.90;;
63714;SDS011;49858;48.956;9.076;2022-09-09T09:09:45;3.35;;;0.65;;
63714;SDS011;49858;48.956;9.076;2022-09-09T09:12:25;2.38;;;0.82;;
63714;SDS011;49858;48.956;9.076;2022-09-09T09:14:58;1.35;;;0.80;;
63714;SDS011;49858;48.956;9.076;2022-09-09T09:17:28;3.05;;;1.45;;
63714;SDS011;49858;48.956;9.076;2022-09-09T09:19:59;1.63;;;0.45;;
63714;SDS011;49858;48.956;9.076;2022-09-09T09:22:29;1.42;;;0.60;;
63714;SDS011;49858;48.956;9.076;2022-09-09T09:25:07;4.07;;;1.02;;
63714;SDS011;49858;48.956;9.076;2022-09-09T09:27:44;2.40;;;0.55;;
63714;SDS011;49858;48.956;9.076;2022-09-09T09:30:19;0.60;;;0.32;;
63714;SDS011;49858;48.956;9.076;2022-09-09T09:33:01;3.70;;;0.70;;
63714;SDS011;49858;48.956;9.076;2022-09-09T09:35:36;1.90;;;0.63;;
63714;SDS011;49858;48.956;9.076;2022-09-09T09:38:12;2.58;;;0.70;;
63714;SDS011;49858;48.956;9.076;2022-09-09T09:41:05;3.40;;;0.68;;
63714;SDS011;49858;48.956;9.076;2022-09-09T09:43:33;1.38;;;0.70;;
63714;SDS011;49858;48.956;9.076;2022-09-09T09:46:17;0.60;;;0.50;;
63714;SDS011;49858;48.956;9.076;2022-09-09T09:48:58;2.90;;;0.60;;
63714;SDS011;49858;48.956;9.076;2022-09-09T09:51:28;1.63;;;0.65;;
63714;SDS011;49858;48.956;9.076;2022-09-09T09:54:03;2.70;;;0.85;;
63714;SDS011;49858;48.956;9.076;2022-09-09T09:56:46;1.65;;;0.60;;
63714;SDS011;49858;48.956;9.076;2022-09-09T09:59:22;1.77;;;0.63;;
63714;SDS011;49858;48.956;9.076;2022-09-09T10:02:17;2.80;;;0.55;;
63714;SDS011;49858;48.956;9.076;2022-09-09T10:05:01;6.45;;;0.90;;
63714;SDS011;49858;48.956;9.076;2022-09-09T10:07:33;2.55;;;0.70;;
63714;SDS011;49858;48.956;9.076;2022-09-09T10:10:03;3.80;;;1.30;;
63714;SDS011;49858;48.956;9.076;2022-09-09T10:12:37;3.05;;;0.70;;
63714;SDS011;49858;48.956;9.076;2022-09-09T10:15:18;6.57;;;1.33;;
63714;SDS011;49858;48.956;9.076;2022-09-09T10:17:57;6.38;;;1.65;;
63714;SDS011;49858;48.956;9.076;2022-09-09T10:20:35;2.60;;;0.95;;
63714;SDS011;49858;48.956;9.076;2022-09-09T10:23:17;3.95;;;1.05;;
63714;SDS011;49858;48.956;9.076;2022-09-09T10:26:09;1.73;;;0.68;;
63714;SDS011;49858;48.956;9.076;2022-09-09T10:28:57;0.93;;;0.50;;
63714;SDS011;49858;48.956;9.076;2022-09-09T10:31:37;1.67;;;0.60;;
63714;SDS011;49858;48.956;9.076;2022-09-09T10:34:16;2.28;;;1.13;;
63714;SDS011;49858;48.956;9.076;2022-09-09T10:40:05;2.45;;;0.60;;
63714;SDS011;49858;48.956;9.076;2022-09-09T10:42:47;3.92;;;1.08;;
63714;SDS011;49858;48.956;9.076;2022-09-09T10:45:17;1.63;;;0.70;;
63714;SDS011;49858;48.956;9.076;2022-09-09T10:47:52;2.22;;;0.40;;
63714;SDS011;49858;48.956;9.076;2022-09-09T10:53:40;3.85;;;0.90;;
63714;SDS011;49858;48.956;9.076;2022-09-09T10:56:18;2.53;;;0.80;;
63714;SDS011;49858;48.956;9.076;2022-09-09T10:58:50;1.90;;;0.70;;
63714;SDS011;49858;48.956;9.076;2022-09-09T11:01:22;1.45;;;0.70;;
63714;SDS011;49858;48.956;9.076;2022-09-09T11:03:53;1.52;;;0.50;;
63714;SDS011;49858;48.956;9.076;2022-09-09T11:06:26;2.50;;;0.65;;
63714;SDS011;49858;48.956;9.076;2022-09-09T11:09:01;1.55;;;0.65;;
63714;SDS011;49858;48.956;9.076;2022-09-09T11:11:32;2.75;;;0.70;;
63714;SDS011;49858;48.956;9.076;2022-09-09T11:14:09;0.93;;;0.50;;
63714;SDS011;49858;48.956;9.076;2022-09-09T11:16:44;1.02;;;0.40;;
63714;SDS011;49858;48.956;9.076;2022-09-09T11:19:18;1.73;;;0.60;;
63714;SDS011;49858;48.956;9.076;2022-09-09T11:21:53;2.80;;;0.80;;
63714;SDS011;49858;48.956;9.076;2022-09-09T11:24:26;1.17;;;0.52;;
63714;SDS011;49858;48.956;9.076;2022-09-09T11:27:00;4.72;;;1.05;;
63714;SDS011;49858;48.956;9.076;2022-09-09T11:29:42;3.55;;;1.10;;
63714;SDS011;49858;48.956;9.076;2022-09-09T11:35:09;4.00;;;0.90;;
63714;SDS011;49858;48.956;9.076;2022-09-09T11:37:56;3.03;;;0.75;;
63714;SDS011;49858;48.956;9.076;2022-09-09T11:40:46;1.38;;;0.55;;
63714;SDS011;49858;48.956;9.076;2022-09-09T11:43:21;1.02;;;0.50;;
63714;SDS011;49858;48.956;9.076;2022-09-09T11:45:54;3.90;;;0.90;;
63714;SDS011;49858;48.956;9.076;2022-09-09T11:48:29;0.95;;;0.55;;
63714;SDS011;49858;48.956;9.076;2022-09-09T11:51:02;1.83;;;0.68;;
63714;SDS011;49858;48.956;9.076;2022-09-09T11:53:47;2.25;;;0.60;;
63714;SDS011;49858;48.956;9.076;2022-09-09T11:56:25;4.22;;;0.90;;
63714;SDS011;49858;48.956;9.076;2022-09-09T11:58:59;1.08;;;0.60;;
63714;SDS011;49858;48.956;9.076;2022-09-09T12:01:33;0.75;;;0.40;;
63714;SDS011;49858;48.956;9.076;2022-09-09T12:04:06;0.55;;;0.50;;
63714;SDS011;49858;48.956;9.076;2022-09-09T12:06:49;0.30;;;0.30;;
63714;SDS011;49858;48.956;9.076;2022-09-09T12:09:22;1.48;;;0.30;;
63714;SDS011;49858;48.956;9.076;2022-09-09T12:12:06;0.40;;;0.35;;
63714;SDS011;49858;48.956;9.076;2022-09-09T12:14:54;2.50;;;0.60;;
63714;SDS011;49858;48.956;9.076;2022-09-09T12:17:24;2.47;;;0.40;;
63714;SDS011;49858;48.956;9.076;2022-09-09T12:20:00;0.30;;;0.25;;
63714;SDS011;49858;48.956;9.076;2022-09-09T12:22:33;0.30;;;0.22;;
63714;SDS011;49858;48.956;9.076;2022-09-09T12:25:09;1.85;;;0.30;;
63714;SDS011;49858;48.956;9.076;2022-09-09T12:27:53;0.20;;;0.17;;
63714;SDS011;49858;48.956;9.076;2022-09-09T12:30:29;0.57;;;0.30;;
63714;SDS011;49858;48.956;9.076;2022-09-09T12:33:02;0.13;;;0.13;;
63714;SDS011;49858;48.956;9.076;2022-09-09T12:35:35;1.55;;;0.43;;
63714;SDS011;49858;48.956;9.076;2022-09-09T12:38:04;0.30;;;0.30;;
63714;SDS011;49858;48.956;9.076;2022-09-09T12:40:37;4.03;;;0.57;;
63714;SDS011;49858;48.956;9.076;2022-09-09T12:43:17;0.73;;;0.50;;
63714;SDS011;49858;48.956;9.076;2022-09-09T12:45:47;4.60;;;0.90;;
63714;SDS011;49858;48.956;9.076;2022-09-09T12:48:25;1.67;;;0.40;;
63714;SDS011;49858;48.956;9.076;2022-09-09T12:50:57;0.63;;;0.40;;
63714;SDS011;49858;48.956;9.076;2022-09-09T12:53:27;1.63;;;0.45;;
63714;SDS011;49858;48.956;9.076;2022-09-09T12:55:57;1.85;;;0.68;;
63714;SDS011;49858;48.956;9.076;2022-09-09T12:58:30;0.95;;;0.38;;
63714;SDS011;49858;48.956;9.076;2022-09-09T13:00:59;2.42;;;0.52;;
63714;SDS011;49858;48.956;9.076;2022-09-09T13:03:41;1.75;;;0.80;;
63714;SDS011;49858;48.956;9.076;2022-09-09T13:06:17;4.57;;;0.50;;
63714;SDS011;49858;48.956;9.076;2022-09-09T13:08:54;0.90;;;0.50;;
63714;SDS011;49858;48.956;9.076;2022-09-09T13:11:25;2.30;;;0.60;;
63714;SDS011;49858;48.956;9.076;2022-09-09T13:13:57;0.40;;;0.30;;
63714;SDS011;49858;48.956;9.076;2022-09-09T13:16:26;1.05;;;0.40;;
63714;SDS011;49858;48.956;9.076;2022-09-09T13:18:58;3.92;;;0.50;;
63714;SDS011;49858;48.956;9.076;2022-09-09T13:21:31;0.90;;;0.40;;
63714;SDS011;49858;48.956;9.076;2022-09-09T13:24:04;1.83;;;0.65;;
63714;SDS011;49858;48.956;9.076;2022-09-09T13:26:34;2.08;;;0.45;;
63714;SDS011;49858;48.956;9.076;2022-09-09T13:29:14;0.47;;;0.20;;
63714;SDS011;49858;48.956;9.076;2022-09-09T13:31:45;2.25;;;0.40;;
63714;SDS011;49858;48.956;9.076;2022-09-09T13:34:13;2.05;;;0.40;;
63714;SDS011;49858;48.956;9.076;2022-09-09T13:36:41;2.45;;;0.90;;
63714;SDS011;49858;48.956;9.076;2022-09-09T13:39:16;1.30;;;0.47;;
63714;SDS011;49858;48.956;9.076;2022-09-09T13:41:45;2.05;;;0.43;;
63714;SDS011;49858;48.956;9.076;2022-09-09T13:44:17;1.35;;;0.50;;
63714;SDS011;49858;48.956;9.076;2022-09-09T13:46:59;2.35;;;0.32;;
63714;SDS011;49858;48.956;9.076;2022-09-09T13:49:34;0.20;;;0.20;;
63714;SDS011;49858;48.956;9.076;2022-09-09T13:52:03;5.53;;;0.65;;
63714;SDS011;49858;48.956;9.076;2022-09-09T13:54:33;1.50;;;0.47;;
63714;SDS011;49858;48.956;9.076;2022-09-09T13:57:03;1.13;;;0.50;;
63714;SDS011;49858;48.956;9.076;2022-09-09T13:59:33;2.17;;;0.57;;
63714;SDS011;49858;48.956;9.076;2022-09-09T14:02:20;1.58;;;0.40;;
63714;SDS011;49858;48.956;9.076;2022-09-09T14:04:49;0.60;;;0.38;;
63714;SDS011;49858;48.956;9.076;2022-09-09T14:07:21;0.75;;;0.40;;
63714;SDS011;49858;48.956;9.076;2022-09-09T14:09:49;0.93;;;0.38;;
63714;SDS011;49858;48.956;9.076;2022-09-09T14:12:18;1.08;;;0.50;;
63714;SDS011;49858;48.956;9.076;2022-09-09T14:14:47;1.40;;;0.20;;
63714;SDS011;49858;48.956;9.076;2022-09-09T14:17:18;1.27;;;0.52;;
63714;SDS011;49858;48.956;9.076;2022-09-09T14:19:46;0.13;;;0.13;;
63714;SDS011;49858;48.956;9.076;2022-09-09T14:22:14;0.20;;;0.20;;
63714;SDS011;49858;48.956;9.076;2022-09-09T14:24:42;2.67;;;0.57;;
63714;SDS011;49858;48.956;9.076;2022-09-09T14:27:10;1.20;;;0.40;;
63714;SDS011;49858;48.956;9.076;2022-09-09T14:29:37;1.17;;;0.43;;
63714;SDS011;49858;48.956;9.076;2022-09-09T14:32:09;0.68;;;0.20;;
63714;SDS011;49858;48.956;9.076;2022-09-09T14:34:38;2.60;;;0.50;;
63714;SDS011;49858;48.956;9.076;2022-09-09T14:37:06;2.50;;;0.38;;
63714;SDS011;49858;48.956;9.076;2022-09-09T14:39:34;0.30;;;0.30;;
63714;SDS011;49858;48.956;9.076;2022-09-09T14:42:02;1.85;;;0.50;;
63714;SDS011;49858;48.956;9.076;2022-09-09T14:44:30;1.70;;;0.30;;
63714;SDS011;49858;48.956;9.076;2022-09-09T14:46:58;1.42;;;0.50;;
63714;SDS011;49858;48.956;9.076;2022-09-09T14:49:28;3.25;;;0.40;;
63714;SDS011;49858;48.956;9.076;2022-09-09T14:51:56;1.58;;;0.50;;
63714;SDS011;49858;48.956;9.076;2022-09-09T14:54:24;0.65;;;0.40;;
63714;SDS011;49858;48.956;9.076;2022-09-09T14:56:52;3.45;;;0.95;;
63714;SDS011;49858;48.956;9.076;2022-09-09T14:59:20;1.02;;;0.30;;
63714;SDS011;49858;48.956;9.076;2022-09-09T15:01:48;5.05;;;0.50;;
63714;SDS011;49858;48.956;9.076;2022-09-09T15:04:16;1.08;;;0.28;;
63714;SDS011;49858;48.956;9.076;2022-09-09T15:06:45;0.63;;;0.20;;
63714;SDS011;49858;48.956;9.076;2022-09-09T15:09:14;0.95;;;0.20;;
63714;SDS011;49858;48.956;9.076;2022-09-09T15:11:42;1.58;;;0.22;;
63714;SDS011;49858;48.956;9.076;2022-09-09T15:14:11;0.47;;;0.20;;
63714;SDS011;49858;48.956;9.076;2022-09-09T15:16:39;1.20;;;0.30;;
63714;SDS011;49858;48.956;9.076;2022-09-09T15:19:07;1.42;;;0.38;;
63714;SDS011;49858;48.956;9.076;2022-09-09T15:21:36;1.45;;;0.13;;
63714;SDS011;49858;48.956;9.076;2022-09-09T15:24:07;0.73;;;0.25;;
63714;SDS011;49858;48.956;9.076;2022-09-09T15:26:35;1.55;;;0.63;;
63714;SDS011;49858;48.956;9.076;2022-09-09T15:29:06;1.15;;;0.40;;
63714;SDS011;49858;48.956;9.076;2022-09-09T15:31:35;2.67;;;0.40;;
63714;SDS011;49858;48.956;9.076;2022-09-09T15:34:03;1.33;;;0.38;;